Time;durP1;ratioP1;P1;durP2;ratioP2;P2;SDS_P1;SDS_P2;PMS_P1;PMS_P2;Temp;Humidity;BMP_temperature;BMP_pressure;BME280_temperature;BME280_humidity;BME280_pressure;Samples;Min_cycle;Max_cycle;Signal;HPM_P1;HPM_P2
2023/04/10 00:00:38;;;;;;;13.00;11.10;;;;;;;11.81;82.92;101014.35;107628;1260;62120;-85
2023/04/10 00:03:05;;;;;;;12.90;10.10;;;;;;;11.82;83.05;101022.77;107638;1260;61871;-84
2023/04/10 00:05:33;;;;;;;12.50;11.00;;;;;;;11.82;83.03;101021.42;107659;1257;76183;-86
2023/04/10 00:08:02;;;;;;;12.30;10.10;;;;;;;11.79;83.08;101022.05;107653;1258;71832;-83
2023/04/10 00:10:30;;;;;;;13.60;12.00;;;;;;;11.77;83.11;101026.08;107589;1261;73074;-84
2023/04/10 00:13:08;;;;;;;12.90;11.50;;;;;;;11.74;83.33;101026.05;107541;1261;62816;-83
2023/04/10 00:15:36;;;;;;;12.10;10.80;;;;;;;11.74;83.44;101025.73;107605;1261;61737;-83
2023/04/10 00:18:04;;;;;;;13.60;11.30;;;;;;;11.74;83.58;101025.15;107678;1257;74631;-84
2023/04/10 00:20:31;;;;;;;15.00;11.90;;;;;;;11.76;83.69;101024.90;107647;1262;73586;-85
2023/04/10 00:22:59;;;;;;;16.00;11.20;;;;;;;11.76;83.70;101025.55;107548;1257;72769;-83
2023/04/10 00:25:28;;;;;;;15.80;12.80;;;;;;;11.76;83.66;101022.55;107650;1257;61978;-84
2023/04/10 00:27:56;;;;;;;16.60;12.60;;;;;;;11.74;83.72;101020.98;107664;1257;61109;-82
2023/04/10 00:30:24;;;;;;;15.50;12.20;;;;;;;11.72;83.82;101022.09;107645;1258;74030;-84
2023/04/10 00:32:54;;;;;;;14.80;12.10;;;;;;;11.72;83.87;101015.83;107796;1261;73975;-86
2023/04/10 00:35:21;;;;;;;16.10;13.20;;;;;;;11.75;83.92;101015.58;107906;1257;71752;-85
2023/04/10 00:37:49;;;;;;;15.00;12.50;;;;;;;11.75;83.95;101016.07;107783;1262;61133;-86
2023/04/10 00:40:16;;;;;;;15.80;13.00;;;;;;;11.76;83.95;101007.51;107786;1262;61147;-84
2023/04/10 00:42:46;;;;;;;17.90;12.90;;;;;;;11.78;83.96;101001.32;107832;1261;74525;-83
2023/04/10 00:45:13;;;;;;;17.10;13.20;;;;;;;11.79;83.95;100999.83;107780;1258;73997;-83
2023/04/10 00:47:45;;;;;;;16.90;13.20;;;;;;;11.80;83.86;100997.16;107711;1262;72891;-83
2023/04/10 00:50:13;;;;;;;16.90;13.90;;;;;;;11.81;83.86;101000.20;107854;1258;61209;-84
2023/04/10 00:52:40;;;;;;;16.70;13.90;;;;;;;11.83;83.76;101013.14;107750;1257;60096;-83
2023/04/10 00:55:07;;;;;;;18.30;14.40;;;;;;;11.87;83.80;101018.35;107694;1257;74709;-84
2023/04/10 00:57:34;;;;;;;14.00;11.90;;;;;;;11.91;83.73;101020.54;107774;1257;71709;-84
2023/04/10 01:00:03;;;;;;;15.00;12.70;;;;;;;11.92;83.68;101018.45;107744;1257;70857;-83
2023/04/10 01:02:32;;;;;;;17.30;13.50;;;;;;;11.91;83.69;101019.09;107858;1257;62930;-85
2023/04/10 01:05:01;;;;;;;18.40;14.10;;;;;;;11.89;83.76;101018.96;107797;1257;61837;-84
2023/04/10 01:07:37;;;;;;;18.50;14.50;;;;;;;11.87;83.77;101016.67;107809;1261;75022;-84
2023/04/10 01:10:24;;;;;;;17.60;14.20;;;;;;;11.87;83.86;101017.64;107793;1258;73012;-83
2023/04/10 01:12:59;;;;;;;19.60;13.80;;;;;;;11.84;83.71;101015.27;108059;1257;70827;-83
2023/04/10 01:15:27;;;;;;;18.40;14.40;;;;;;;11.85;83.68;101014.63;107967;1257;61641;-83
2023/04/10 01:18:11;;;;;;;19.10;15.40;;;;;;;11.91;83.55;101014.48;107726;1260;61120;-84
2023/04/10 01:20:38;;;;;;;21.80;14.70;;;;;;;11.90;83.71;101011.14;107814;1258;73716;-83
2023/04/10 01:23:21;;;;;;;20.70;15.10;;;;;;;11.91;83.71;101012.43;107769;1257;71887;-83
2023/04/10 01:25:50;;;;;;;;;;;;;;;11.91;83.60;101011.69;107824;1257;72513;-82
2023/04/10 01:28:19;;;;;;;20.20;15.90;;;;;;;11.88;83.60;101011.08;107858;1257;62835;-83
2023/04/10 01:30:52;;;;;;;18.70;14.10;;;;;;;11.86;83.59;101012.08;107791;1261;61087;-83
2023/04/10 01:33:21;;;;;;;18.00;15.30;;;;;;;11.89;83.49;101008.41;107808;1260;74645;-82
2023/04/10 01:35:49;;;;;;;18.60;15.40;;;;;;;11.83;83.52;101012.08;107718;1257;73008;-83
2023/04/10 01:38:17;;;;;;;20.60;16.60;;;;;;;11.80;83.73;101008.17;107856;1257;72703;-83
2023/04/10 01:40:49;;;;;;;19.20;15.40;;;;;;;11.79;83.81;101007.11;107795;1257;61452;-82
2023/04/10 01:43:19;;;;;;;21.90;16.80;;;;;;;11.79;83.88;101008.72;107774;1257;61118;-82
2023/04/10 01:45:50;;;;;;;21.80;16.40;;;;;;;11.85;83.67;101005.69;107597;1263;75765;-84
2023/04/10 01:48:19;;;;;;;23.20;17.40;;;;;;;11.86;83.58;101009.23;107754;1257;71905;-83
2023/04/10 01:50:46;;;;;;;20.80;17.20;;;;;;;11.87;83.58;101009.17;107784;1257;72036;-83
2023/04/10 01:53:13;;;;;;;24.30;17.70;;;;;;;11.86;83.59;101010.62;103313;1257;5883667;-84
2023/04/10 01:55:42;;;;;;;21.90;17.40;;;;;;;11.82;83.82;101008.64;107608;1260;75078;-83
2023/04/10 01:58:10;;;;;;;25.00;18.60;;;;;;;11.82;83.81;101010.98;107695;1257;73132;-85
2023/04/10 02:00:41;;;;;;;25.30;18.60;;;;;;;11.80;83.94;101011.77;107750;1257;73726;-84
2023/04/10 02:03:09;;;;;;;23.40;18.00;;;;;;;11.78;84.13;101015.55;107732;1257;61593;-85
2023/04/10 02:06:01;;;;;;;25.10;20.10;;;;;;;11.78;84.08;101010.83;107788;1260;61142;-84
2023/04/10 02:08:33;;;;;;;25.60;20.30;;;;;;;11.76;84.26;101017.47;107753;1258;75251;-85
2023/04/10 02:11:32;;;;;;;27.10;21.00;;;;;;;11.76;84.29;101019.55;107804;1260;72849;-84
2023/04/10 02:14:01;;;;;;;24.10;19.50;;;;;;;11.74;84.46;101019.95;107684;1259;72003;-83
2023/04/10 02:16:28;;;;;;;26.60;19.90;;;;;;;11.74;84.46;101019.75;107675;1260;61386;-84
2023/04/10 02:18:56;;;;;;;25.80;19.60;;;;;;;11.75;84.61;101018.36;107624;1260;61148;-85
2023/04/10 02:21:27;;;;;;;27.10;21.10;;;;;;;11.76;84.63;101019.60;107687;1260;74334;-85
2023/04/10 02:23:57;;;;;;;23.90;19.20;;;;;;;11.82;84.55;101014.80;107680;1257;73723;-83
2023/04/10 02:26:24;;;;;;;28.60;20.90;;;;;;;11.86;84.41;101011.86;107674;1262;70823;-85
2023/04/10 02:29:00;;;;;;;28.20;20.50;;;;;;;11.88;84.34;101009.73;107841;1258;61817;-84
2023/04/10 02:31:27;;;;;;;26.40;19.40;;;;;;;11.86;84.18;101014.05;107865;1257;61148;-83
2023/04/10 02:33:54;;;;;;;23.30;19.30;;;;;;;11.86;84.24;101012.61;107796;1257;75436;-83
2023/04/10 02:36:22;;;;;;;24.90;19.60;;;;;;;11.89;84.33;101016.02;107614;1260;72170;-85
2023/04/10 02:38:51;;;;;;;25.30;19.20;;;;;;;11.92;84.28;101015.66;107914;1261;71944;-83
2023/04/10 02:41:18;;;;;;;24.10;19.00;;;;;;;11.92;84.25;101014.65;107974;1257;62984;-83
2023/04/10 02:43:45;;;;;;;25.60;20.00;;;;;;;11.90;84.24;101017.69;108039;1257;61876;-84
2023/04/10 02:46:13;;;;;;;23.40;20.10;;;;;;;11.93;84.19;101016.52;107835;1257;75726;-84
2023/04/10 02:48:41;;;;;;;24.00;20.40;;;;;;;11.90;84.22;101020.90;107860;1257;73775;-83
2023/04/10 02:51:09;;;;;;;24.60;19.60;;;;;;;11.88;84.41;101022.15;107780;1260;72414;-83
2023/04/10 02:53:39;;;;;;;21.30;19.00;;;;;;;11.90;84.45;101023.40;107774;1257;62161;-85
2023/04/10 02:56:07;;;;;;;22.30;18.70;;;;;;;11.96;84.22;101019.93;107797;1257;63052;-84
2023/04/10 02:58:35;;;;;;;23.20;18.00;;;;;;;11.93;84.22;101023.80;107863;1261;72986;-84
2023/04/10 03:01:04;;;;;;;25.60;19.30;;;;;;;11.92;84.27;101020.64;107832;1257;72786;-83
2023/04/10 03:03:40;;;;;;;22.10;18.20;;;;;;;11.89;84.24;101017.04;107760;1258;72063;-82
2023/04/10 03:06:12;;;;;;;22.40;17.20;;;;;;;11.91;84.20;101021.02;107699;1257;62422;-82
2023/04/10 03:08:41;;;;;;;26.60;18.80;;;;;;;11.89;84.27;101023.39;107869;1257;61304;-84
2023/04/10 03:11:08;;;;;;;21.80;17.20;;;;;;;11.90;84.09;101023.19;107796;1257;73971;-86
2023/04/10 03:13:40;;;;;;;22.10;17.80;;;;;;;11.89;84.05;101020.45;107799;1257;72611;-86
2023/04/10 03:16:07;;;;;;;23.70;18.70;;;;;;;11.88;83.98;101021.41;107790;1257;72921;-85
2023/04/10 03:18:35;;;;;;;23.40;17.60;;;;;;;11.88;83.95;101023.13;107713;1257;61957;-84
2023/04/10 03:21:06;;;;;;;22.30;16.90;;;;;;;11.83;84.26;101026.31;107768;1257;61132;-84
2023/04/10 03:23:35;;;;;;;22.50;17.80;;;;;;;11.82;84.16;101029.67;107717;1257;75853;-86
2023/04/10 03:26:03;;;;;;;22.20;17.60;;;;;;;11.82;84.14;101030.52;107774;1257;71822;-84
2023/04/10 03:28:36;;;;;;;23.40;18.20;;;;;;;11.81;84.20;101031.47;107741;1257;73671;-84
2023/04/10 03:31:04;;;;;;;24.10;19.50;;;;;;;11.80;84.23;101028.36;107731;1257;63422;-85
2023/04/10 03:33:39;;;;;;;22.20;18.10;;;;;;;11.81;84.26;101032.44;107803;1257;61110;-85
2023/04/10 03:36:08;;;;;;;26.30;20.10;;;;;;;11.83;84.27;101034.06;107750;1259;74083;-86
2023/04/10 03:38:40;;;;;;;26.20;19.50;;;;;;;11.82;84.24;101036.36;107784;1257;72616;-85
2023/04/10 03:41:10;;;;;;;28.90;20.50;;;;;;;11.81;84.26;101037.47;107803;1257;73874;-84
2023/04/10 03:43:38;;;;;;;26.00;19.40;;;;;;;11.81;84.20;101039.72;107821;1261;63428;-84
2023/04/10 03:46:06;;;;;;;28.60;21.20;;;;;;;11.82;84.16;101042.02;107827;1257;61107;-84
2023/04/10 03:48:36;;;;;;;28.20;21.00;;;;;;;11.78;84.02;101043.92;107852;1257;74980;-84
2023/04/10 03:51:05;;;;;;;29.10;20.70;;;;;;;11.81;84.02;101044.27;107816;1257;73206;-84
2023/04/10 03:53:34;;;;;;;26.30;18.70;;;;;;;11.85;83.99;101044.08;107776;1261;72213;-85
2023/04/10 03:56:05;;;;;;;25.40;19.40;;;;;;;11.86;83.94;101043.34;107753;1257;62183;-84
2023/04/10 03:58:32;;;;;;;24.80;18.90;;;;;;;11.86;83.88;101042.32;107807;1257;61256;-84
2023/04/10 04:00:59;;;;;;;23.90;19.00;;;;;;;11.87;83.95;101047.67;107806;1259;74063;-85
2023/04/10 04:03:33;;;;;;;24.90;19.00;;;;;;;11.88;83.90;101049.46;107828;1257;73551;-85
2023/04/10 04:06:26;;;;;;;26.70;18.90;;;;;;;11.89;83.77;101051.55;108219;1257;73874;-85
2023/04/10 04:09:07;;;;;;;23.90;18.90;;;;;;;11.89;83.74;101054.02;107888;1257;61541;-85
2023/04/10 04:12:11;;;;;;;26.80;18.50;;;;;;;11.88;83.69;101054.50;107693;1257;60500;-84
2023/04/10 04:14:50;;;;;;;23.00;17.70;;;;;;;11.86;83.68;101057.52;107857;1257;74737;-86
2023/04/10 04:17:17;;;;;;;23.00;18.20;;;;;;;11.86;83.54;101055.60;107790;1259;73717;-85
2023/04/10 04:20:19;;;;;;;24.10;17.70;;;;;;;11.90;83.54;101056.75;107805;1259;73741;-85
2023/04/10 04:22:58;;;;;;;24.60;19.20;;;;;;;11.88;83.47;101059.21;107820;1259;62208;-85
2023/04/10 04:25:34;;;;;;;25.80;18.80;;;;;;;11.89;83.47;101060.06;107800;1258;61151;-85
2023/04/10 04:28:19;;;;;;;21.50;17.10;;;;;;;11.89;83.37;101056.96;107732;1257;73991;-86
2023/04/10 04:31:05;;;;;;;24.60;19.20;;;;;;;11.91;83.27;101056.29;107747;1262;72517;-86
2023/04/10 04:33:51;;;;;;;23.00;17.30;;;;;;;11.89;83.12;101058.89;107757;1261;72881;-84
2023/04/10 04:36:42;;;;;;;22.80;17.30;;;;;;;11.90;83.10;101059.75;107646;1257;62902;-84
2023/04/10 04:39:23;;;;;;;25.00;18.60;;;;;;;11.90;82.87;101060.13;107757;1258;61137;-84
2023/04/10 04:42:04;;;;;;;23.30;18.10;;;;;;;11.91;82.83;101063.02;107744;1259;74619;-84
2023/04/10 04:44:48;;;;;;;23.40;17.20;;;;;;;11.91;82.69;101064.52;107731;1257;72132;-85
2023/04/10 04:47:40;;;;;;;21.50;17.90;;;;;;;11.89;82.49;101065.69;107699;1261;72074;-85
2023/04/10 04:50:22;;;;;;;19.90;16.10;;;;;;;11.89;82.50;101069.77;107717;1257;63111;-85
2023/04/10 04:53:12;;;;;;;22.20;16.20;;;;;;;11.94;82.57;101072.42;107814;1257;60177;-84
2023/04/10 04:55:47;;;;;;;19.00;15.30;;;;;;;11.98;82.52;101074.83;107832;1257;75404;-86
2023/04/10 04:58:45;;;;;;;21.20;16.20;;;;;;;11.99;82.45;101077.14;107440;1257;73176;-84
2023/04/10 05:01:19;;;;;;;18.00;15.40;;;;;;;12.03;82.43;101079.89;107816;1262;73564;-85
2023/04/10 05:04:06;;;;;;;18.50;14.80;;;;;;;12.04;82.24;101078.63;107794;1257;63030;-85
2023/04/10 05:06:54;;;;;;;20.00;15.10;;;;;;;12.04;82.17;101081.46;107828;1257;60434;-85
2023/04/10 05:09:43;;;;;;;20.90;15.40;;;;;;;12.06;82.04;101087.91;107643;1257;74186;-84
2023/04/10 05:12:19;;;;;;;18.60;14.90;;;;;;;12.05;81.90;101087.69;107769;1257;72101;-83
2023/04/10 05:15:08;;;;;;;20.70;15.90;;;;;;;12.05;81.81;101085.27;107437;1257;74097;-84
2023/04/10 05:17:49;;;;;;;19.30;15.00;;;;;;;12.05;81.76;101087.09;107737;1257;61989;-85
2023/04/10 05:20:52;;;;;;;18.50;15.60;;;;;;;12.05;81.55;101083.08;107301;1265;61225;-83
2023/04/10 05:23:42;;;;;;;22.20;17.30;;;;;;;12.07;81.35;101081.38;107707;1258;74718;-85
2023/04/10 05:26:35;;;;;;;18.60;15.70;;;;;;;12.08;81.30;101088.69;107686;1257;71887;-86
2023/04/10 05:29:11;;;;;;;21.50;16.50;;;;;;;12.08;81.28;101090.73;107741;1261;73700;-85
2023/04/10 05:31:53;;;;;;;17.70;14.70;;;;;;;12.10;81.20;101089.27;107823;1257;62925;-85
2023/04/10 05:34:43;;;;;;;21.30;16.60;;;;;;;12.11;81.18;101092.08;107948;1259;59741;-85
2023/04/10 05:37:32;;;;;;;;;;;;;;;12.10;81.08;101093.52;108371;1258;72952;-85
2023/04/10 05:40:19;;;;;;;21.80;16.70;;;;;;;12.09;80.97;101093.77;107895;1257;71622;-84
2023/04/10 05:43:05;;;;;;;20.40;15.80;;;;;;;12.10;80.98;101099.45;107784;1261;73130;-84
2023/04/10 05:45:55;;;;;;;24.30;17.40;;;;;;;12.10;80.87;101102.93;107788;1257;63642;-85
2023/04/10 05:48:51;;;;;;;23.00;16.10;;;;;;;12.09;80.86;101105.83;107826;1259;61166;-85
2023/04/10 05:51:36;;;;;;;20.50;15.70;;;;;;;12.09;80.73;101106.36;107714;1257;75481;-84
2023/04/10 05:54:18;;;;;;;23.90;17.70;;;;;;;12.10;80.69;101106.58;107891;1258;71787;-85
2023/04/10 05:57:03;;;;;;;22.10;16.70;;;;;;;12.12;80.78;101105.95;107722;1257;71382;-84
2023/04/10 05:59:49;;;;;;;21.10;17.60;;;;;;;12.15;80.74;101107.77;107795;1257;62666;-85
2023/04/10 06:02:43;;;;;;;20.60;17.20;;;;;;;12.19;80.72;101106.17;107746;1258;61332;-83
2023/04/10 06:05:16;;;;;;;19.20;15.80;;;;;;;12.23;80.77;101106.92;107696;1260;74105;-83
2023/04/10 06:07:50;;;;;;;22.40;16.70;;;;;;;12.26;80.60;101107.95;107721;1257;73840;-85
2023/04/10 06:10:36;;;;;;;22.10;17.40;;;;;;;12.24;80.56;101110.73;107787;1259;73994;-84
2023/04/10 06:13:03;;;;;;;24.00;17.90;;;;;;;12.19;80.27;101110.58;107742;1257;63070;-85
2023/04/10 06:15:37;;;;;;;24.30;18.30;;;;;;;12.18;80.28;101117.05;107712;1258;61517;-86
2023/04/10 06:18:05;;;;;;;25.70;18.90;;;;;;;12.17;80.43;101117.63;107741;1258;74709;-86
2023/04/10 06:20:32;;;;;;;27.70;18.90;;;;;;;12.13;80.34;101119.41;107803;1259;73954;-85
2023/04/10 06:23:00;;;;;;;29.90;19.50;;;;;;;12.08;80.15;101122.31;107734;1257;71362;-86
2023/04/10 06:25:28;;;;;;;28.70;18.40;;;;;;;12.07;80.08;101121.98;107766;1257;62358;-85
2023/04/10 06:27:55;;;;;;;25.50;17.40;;;;;;;12.09;80.08;101117.39;107785;1257;60685;-85
2023/04/10 06:30:29;;;;;;;26.00;18.60;;;;;;;12.11;80.22;101117.45;107496;1256;75398;-87
2023/04/10 06:32:57;;;;;;;25.00;17.20;;;;;;;12.14;80.33;101119.68;107789;1258;73974;-86
2023/04/10 06:35:26;;;;;;;25.80;18.80;;;;;;;12.17;80.44;101119.33;107744;1257;73687;-86
2023/04/10 06:37:54;;;;;;;26.90;18.20;;;;;;;12.20;80.52;101120.01;107830;1257;62918;-86
2023/04/10 06:40:21;;;;;;;24.40;17.40;;;;;;;12.24;80.52;101120.75;107768;1257;61182;-85
2023/04/10 06:42:48;;;;;;;28.50;18.70;;;;;;;12.27;80.49;101123.91;107806;1258;75634;-86
2023/04/10 06:45:23;;;;;;;26.30;18.10;;;;;;;12.26;80.38;101126.55;107850;1257;72815;-86
2023/04/10 06:47:51;;;;;;;24.70;17.10;;;;;;;12.26;80.44;101126.71;107814;1258;72014;-85
2023/04/10 06:50:22;;;;;;;27.10;18.10;;;;;;;12.22;80.24;101128.39;107772;1259;61783;-85
2023/04/10 06:52:49;;;;;;;28.70;18.00;;;;;;;12.13;80.22;101129.05;107808;1257;61125;-87
2023/04/10 06:55:16;;;;;;;25.00;17.50;;;;;;;12.07;80.36;101130.60;107808;1257;74074;-85
2023/04/10 06:58:03;;;;;;;26.00;16.30;;;;;;;12.02;80.43;101131.08;107867;1257;75095;-86
2023/04/10 07:00:30;;;;;;;27.10;17.00;;;;;;;12.02;80.64;101133.06;107905;1257;73367;-86
2023/04/10 07:02:58;;;;;;;25.00;16.80;;;;;;;12.05;80.74;101133.41;107974;1259;62488;-86
2023/04/10 07:05:25;;;;;;;24.50;16.60;;;;;;;12.06;80.78;101133.64;107937;1262;61111;-85
2023/04/10 07:07:52;;;;;;;29.90;17.80;;;;;;;12.05;80.89;101134.75;107952;1257;75288;-86
2023/04/10 07:10:24;;;;;;;29.90;17.70;;;;;;;12.03;80.99;101136.92;108091;1257;71444;-83
2023/04/10 07:12:56;;;;;;;28.90;17.70;;;;;;;12.02;81.05;101137.14;108126;1257;72537;-83
2023/04/10 07:15:41;;;;;;;26.10;17.10;;;;;;;12.01;81.21;101136.27;108473;1257;61462;-80
2023/04/10 07:18:09;;;;;;;26.10;17.40;;;;;;;12.02;81.23;101137.45;108528;1259;59889;-79
2023/04/10 07:20:37;;;;;;;28.80;17.30;;;;;;;12.07;81.33;101142.02;108485;1258;73985;-85
2023/04/10 07:23:11;;;;;;;25.20;17.00;;;;;;;12.12;81.55;101143.13;108465;1257;71836;-84
2023/04/10 07:25:42;;;;;;;23.10;16.20;;;;;;;12.21;81.88;101146.27;107801;1260;73125;-84
2023/04/10 07:28:10;;;;;;;22.80;16.70;;;;;;;12.30;81.86;101147.80;107906;1257;61116;-80
2023/04/10 07:30:43;;;;;;;23.00;16.70;;;;;;;12.35;81.82;101156.05;107817;1257;61523;-82
2023/04/10 07:33:11;;;;;;;22.30;15.50;;;;;;;12.38;81.71;101151.79;107827;1257;72912;-82
2023/04/10 07:35:39;;;;;;;21.10;14.70;;;;;;;12.38;81.63;101154.55;107802;1257;72816;-84
2023/04/10 07:38:06;;;;;;;21.90;14.20;;;;;;;12.33;81.34;101156.09;107796;1257;72379;-84
2023/04/10 07:40:34;;;;;;;24.70;14.80;;;;;;;12.29;81.42;101156.36;107715;1259;62228;-83
2023/04/10 07:43:01;;;;;;;21.90;15.00;;;;;;;12.28;81.60;101158.77;107800;1257;61153;-84
2023/04/10 07:45:29;;;;;;;18.50;13.60;;;;;;;12.30;81.59;101159.73;107899;1257;74715;-81
2023/04/10 07:47:58;;;;;;;17.50;13.10;;;;;;;12.33;81.76;101159.66;107773;1257;73543;-83
2023/04/10 07:50:25;;;;;;;19.20;13.50;;;;;;;12.35;81.74;101157.80;107758;1258;72899;-82
2023/04/10 07:52:52;;;;;;;17.30;12.40;;;;;;;12.40;81.78;101157.34;107685;1258;61761;-82
2023/04/10 07:55:36;;;;;;;17.30;12.40;;;;;;;12.50;81.87;101156.82;102874;1257;20001951;-82
2023/04/10 07:58:05;;;;;;;17.10;11.90;;;;;;;12.62;81.99;101155.30;100155;1257;10001851;-84
2023/04/10 08:00:32;;;;;;;16.20;12.10;;;;;;;12.76;82.16;101155.10;107517;1262;72709;-84
2023/04/10 08:03:00;;;;;;;14.50;12.00;;;;;;;12.89;82.11;101156.65;107692;1257;62475;-83
2023/04/10 08:05:28;;;;;;;13.90;11.40;;;;;;;13.03;81.88;101156.46;107666;1257;61806;-82
2023/04/10 08:07:55;;;;;;;12.80;10.50;;;;;;;13.16;81.80;101155.95;107672;1257;73871;-84
2023/04/10 08:10:27;;;;;;;12.70;10.10;;;;;;;13.32;81.54;101154.68;107517;1257;73024;-83
2023/04/10 08:12:57;;;;;;;12.70;10.80;;;;;;;13.48;81.29;101152.61;107623;1257;74186;-84
2023/04/10 08:15:24;;;;;;;14.20;10.10;;;;;;;13.60;80.81;101155.79;107717;1257;63228;-82
2023/04/10 08:17:52;;;;;;;11.10;9.50;;;;;;;13.70;80.54;101158.23;107638;1257;61101;-83
2023/04/10 08:20:19;;;;;;;12.80;9.90;;;;;;;13.78;80.24;101157.63;107492;1259;74779;-83
2023/04/10 08:22:46;;;;;;;10.30;8.50;;;;;;;13.82;79.59;101156.46;107981;1260;73771;-81
2023/04/10 08:25:14;;;;;;;11.40;9.20;;;;;;;13.81;78.83;101159.24;107953;1258;72057;-81
2023/04/10 08:27:54;;;;;;;12.00;9.10;;;;;;;13.76;78.16;101164.65;108579;1258;60273;-82
2023/04/10 08:30:22;;;;;;;10.20;8.70;;;;;;;13.74;78.20;101161.85;108123;1259;59913;-83
2023/04/10 08:32:49;;;;;;;9.50;7.70;;;;;;;13.70;78.03;101157.48;107836;1262;73848;-83
2023/04/10 08:35:21;;;;;;;8.60;7.80;;;;;;;13.67;77.60;101156.61;107728;1257;72771;-83
2023/04/10 08:37:49;;;;;;;11.40;8.20;;;;;;;13.63;77.19;101158.54;107599;1257;72883;-82
2023/04/10 08:40:37;;;;;;;10.70;8.40;;;;;;;13.62;77.22;101157.63;107654;1257;63285;-82
2023/04/10 08:43:10;;;;;;;9.40;8.20;;;;;;;13.66;76.92;101155.96;107662;1257;61230;-83
2023/04/10 08:45:40;;;;;;;9.10;8.20;;;;;;;13.71;76.79;101158.19;107702;1258;75701;-83
2023/04/10 08:48:08;;;;;;;9.70;8.30;;;;;;;13.84;77.19;101153.77;107730;1257;72072;-82
2023/04/10 08:50:41;;;;;;;8.80;7.70;;;;;;;14.01;77.12;101154.67;107644;1258;72584;-82
2023/04/10 08:53:10;;;;;;;10.20;8.20;;;;;;;14.22;76.97;101147.47;107702;1257;61673;-81
2023/04/10 08:55:41;;;;;;;9.80;8.00;;;;;;;14.44;76.62;101146.75;107655;1261;61598;-83
2023/04/10 08:58:12;;;;;;;8.80;7.80;;;;;;;14.65;76.32;101148.55;107723;1257;75484;-86
2023/04/10 09:00:47;;;;;;;10.70;8.20;;;;;;;14.91;75.79;101141.59;107769;1257;73690;-89
2023/04/10 09:03:16;;;;;;;9.10;7.30;;;;;;;15.11;74.61;101141.54;107584;1257;73896;-83
2023/04/10 09:05:43;;;;;;;8.00;6.90;;;;;;;15.24;73.66;101137.36;107726;1257;62996;-83
2023/04/10 09:08:12;;;;;;;8.70;6.80;;;;;;;15.35;72.26;101137.82;107738;1257;61142;-83
2023/04/10 09:10:40;;;;;;;8.10;6.50;;;;;;;15.42;71.67;101141.02;107664;1257;75660;-83
2023/04/10 09:13:08;;;;;;;7.30;6.50;;;;;;;15.49;70.91;101140.14;107688;1257;74436;-83
2023/04/10 09:15:56;;;;;;;7.30;5.80;;;;;;;15.50;69.49;101139.42;107650;1257;73285;-82
2023/04/10 09:18:50;;;;;;;6.10;5.10;;;;;;;15.43;68.00;101136.61;107624;1259;60720;-83
2023/04/10 09:21:19;;;;;;;6.80;5.50;;;;;;;15.39;67.16;101139.41;107687;1259;59698;-82
2023/04/10 09:23:47;;;;;;;6.00;5.10;;;;;;;15.44;66.89;101140.95;107743;1259;75556;-82
2023/04/10 09:26:22;;;;;;;6.20;5.20;;;;;;;15.51;66.64;101141.10;107725;1259;72811;-83
2023/04/10 09:29:00;;;;;;;6.70;5.80;;;;;;;15.62;66.44;101143.31;107563;1258;72863;-83
2023/04/10 09:31:30;;;;;;;5.90;4.70;;;;;;;15.76;66.04;101147.27;107619;1257;61697;-84
2023/04/10 09:34:12;;;;;;;7.70;6.10;;;;;;;15.90;66.15;101145.84;107657;1257;61105;-84
2023/04/10 09:36:44;;;;;;;9.90;7.20;;;;;;;16.00;66.15;101145.79;107709;1257;73332;-83
2023/04/10 09:39:15;;;;;;;9.80;7.30;;;;;;;16.01;66.21;101145.79;107689;1257;73519;-82
2023/04/10 09:42:05;;;;;;;9.30;7.40;;;;;;;15.98;65.85;101146.92;107771;1261;73885;-84
2023/04/10 09:44:33;;;;;;;9.10;7.80;;;;;;;15.80;64.56;101144.11;107318;1262;62076;-84
2023/04/10 09:47:13;;;;;;;7.70;6.90;;;;;;;15.63;64.25;101141.27;107354;1265;60947;-81
2023/04/10 09:49:51;;;;;;;9.00;7.20;;;;;;;15.60;64.82;101144.44;107553;1262;74681;-85
2023/04/10 09:52:31;;;;;;;9.00;7.40;;;;;;;15.67;65.05;101141.20;108359;1262;72850;-84
2023/04/10 09:54:59;;;;;;;9.70;7.40;;;;;;;15.71;64.86;101140.13;108012;1262;72683;-83
2023/04/10 09:57:28;;;;;;;8.70;7.60;;;;;;;15.74;65.09;101139.68;107781;1262;61404;-81
2023/04/10 10:00:03;;;;;;;9.50;7.70;;;;;;;15.79;64.86;101141.21;107720;1262;61280;-82
2023/04/10 10:02:40;;;;;;;8.10;6.80;;;;;;;15.83;64.72;101144.58;107539;1263;74288;-82
2023/04/10 10:05:10;;;;;;;9.30;7.00;;;;;;;15.87;64.71;101143.70;107452;1262;71110;-83
2023/04/10 10:07:40;;;;;;;7.90;6.80;;;;;;;15.93;64.73;101143.66;107580;1262;72625;-81
2023/04/10 10:10:08;;;;;;;8.10;6.90;;;;;;;15.97;64.62;101143.28;107472;1262;62153;-82
2023/04/10 10:13:07;;;;;;;7.10;6.00;;;;;;;15.91;64.19;101138.66;107530;1262;61141;-84
2023/04/10 10:16:04;;;;;;;7.50;5.60;;;;;;;15.84;63.66;101139.04;108116;1257;74843;-81
2023/04/10 10:18:47;;;;;;;6.00;5.20;;;;;;;15.96;62.97;101135.79;108534;1259;72316;-80
2023/04/10 10:21:14;;;;;;;5.40;4.40;;;;;;;16.12;62.01;101133.04;108374;1259;70666;-78
2023/04/10 10:23:44;;;;;;;6.90;4.60;;;;;;;16.29;61.28;101133.58;108333;1257;61088;-82
2023/04/10 10:26:14;;;;;;;5.00;4.00;;;;;;;16.39;60.68;101131.66;108478;1261;61168;-79
2023/04/10 10:28:41;;;;;;;4.80;4.00;;;;;;;16.44;60.37;101134.64;107986;1259;73762;-82
2023/04/10 10:31:11;;;;;;;4.70;3.90;;;;;;;16.41;60.33;101135.75;107828;1259;73206;-81
2023/04/10 10:33:38;;;;;;;5.30;3.90;;;;;;;16.34;60.50;101134.35;107779;1259;72457;-82
2023/04/10 10:36:05;;;;;;;4.50;3.60;;;;;;;16.36;60.89;101130.49;107864;1257;61131;-84
2023/04/10 10:38:33;;;;;;;5.10;3.60;;;;;;;16.44;60.80;101134.91;107815;1257;60033;-82
2023/04/10 10:41:08;;;;;;;5.90;3.70;;;;;;;16.46;60.49;101133.34;107897;1260;74632;-82
2023/04/10 10:44:26;;;;;;;5.00;3.70;;;;;;;16.42;60.09;101132.02;107797;1257;72880;-82
2023/04/10 10:47:04;;;;;;;4.30;3.40;;;;;;;16.37;60.40;101133.94;107836;1257;72695;-83
2023/04/10 10:49:56;;;;;;;4.50;3.20;;;;;;;16.23;60.34;101131.02;107795;1257;61185;-85
2023/04/10 10:52:37;;;;;;;4.00;3.20;;;;;;;16.18;60.66;101129.98;107764;1258;61568;-83
2023/04/10 10:55:20;;;;;;;4.40;3.30;;;;;;;16.30;61.02;101129.51;107837;1260;75834;-83
2023/04/10 10:57:50;;;;;;;4.20;3.00;;;;;;;16.52;61.46;101125.67;107764;1257;72986;-83
2023/04/10 11:00:22;;;;;;;4.00;3.00;;;;;;;16.76;60.88;101125.96;107801;1259;72935;-83
2023/04/10 11:03:10;;;;;;;4.30;2.90;;;;;;;17.04;60.17;101117.98;107869;1257;61118;-84
2023/04/10 11:05:55;;;;;;;3.70;3.00;;;;;;;17.33;59.12;101116.36;107868;1257;61134;-80
2023/04/10 11:08:35;;;;;;;4.10;2.90;;;;;;;17.51;57.48;101115.60;107782;1259;75514;-84
2023/04/10 11:11:24;;;;;;;4.10;3.10;;;;;;;17.58;56.30;101115.66;107732;1257;72388;-82
2023/04/10 11:13:51;;;;;;;4.50;2.80;;;;;;;17.61;55.59;101114.77;107850;1257;72372;-84
2023/04/10 11:16:36;;;;;;;3.80;2.80;;;;;;;17.61;55.36;101114.55;107882;1257;61195;-83
2023/04/10 11:19:11;;;;;;;4.00;3.00;;;;;;;17.56;55.50;101119.86;108228;1258;61193;-83
2023/04/10 11:22:06;;;;;;;5.00;2.80;;;;;;;17.50;55.39;101120.95;108014;1258;73536;-84
2023/04/10 11:24:57;;;;;;;4.60;3.20;;;;;;;17.38;55.67;101123.05;107793;1259;73973;-82
2023/04/10 11:27:40;;;;;;;4.40;2.80;;;;;;;17.19;56.97;101131.70;107739;1257;72888;-82
2023/04/10 11:30:27;;;;;;;4.40;3.20;;;;;;;16.84;59.34;101142.30;107827;1257;61142;-82
2023/04/10 11:32:54;;;;;;;5.20;3.10;;;;;;;16.30;61.06;101143.16;107746;1257;61346;-81
2023/04/10 11:35:21;;;;;;;5.00;2.90;;;;;;;15.88;62.45;101139.01;107860;1257;73928;-82
2023/04/10 11:37:48;;;;;;;6.50;3.40;;;;;;;15.60;63.61;101136.33;107718;1257;72842;-82